sensor_id;sensor_type;location;lat;lon;timestamp;temperature;humidity
39525;DHT22;25203;50.754;6.978;2023-08-06T00:01:12;14.70;99.90
39525;DHT22;25203;50.754;6.978;2023-08-06T00:03:13;14.60;99.90
39525;DHT22;25203;50.754;6.978;2023-08-06T00:05:14;14.70;99.90
39525;DHT22;25203;50.754;6.978;2023-08-06T00:07:18;14.70;99.90
39525;DHT22;25203;50.754;6.978;2023-08-06T00:09:18;14.60;99.90
39525;DHT22;25203;50.754;6.978;2023-08-06T00:11:19;14.60;99.90
39525;DHT22;25203;50.754;6.978;2023-08-06T00:13:20;14.50;99.90
39525;DHT22;25203;50.754;6.978;2023-08-06T00:15:20;14.50;99.90
39525;DHT22;25203;50.754;6.978;2023-08-06T00:17:21;14.40;99.90
39525;DHT22;25203;50.754;6.978;2023-08-06T00:19:22;14.30;99.90
39525;DHT22;25203;50.754;6.978;2023-08-06T00:21:22;14.30;99.90
39525;DHT22;25203;50.754;6.978;2023-08-06T00:23:23;14.30;99.90
39525;DHT22;25203;50.754;6.978;2023-08-06T00:25:23;14.30;99.90
39525;DHT22;25203;50.754;6.978;2023-08-06T00:27:24;14.30;99.90
39525;DHT22;25203;50.754;6.978;2023-08-06T00:29:25;14.30;99.90
39525;DHT22;25203;50.754;6.978;2023-08-06T00:31:26;14.50;99.90
39525;DHT22;25203;50.754;6.978;2023-08-06T00:33:26;14.50;99.90
39525;DHT22;25203;50.754;6.978;2023-08-06T00:35:27;14.60;99.90
39525;DHT22;25203;50.754;6.978;2023-08-06T00:37:27;14.70;99.90
39525;DHT22;25203;50.754;6.978;2023-08-06T00:39:28;14.70;99.90
39525;DHT22;25203;50.754;6.978;2023-08-06T00:41:29;14.70;99.90
39525;DHT22;25203;50.754;6.978;2023-08-06T00:43:29;14.70;99.90
39525;DHT22;25203;50.754;6.978;2023-08-06T00:45:30;14.80;99.90
39525;DHT22;25203;50.754;6.978;2023-08-06T00:47:34;14.90;99.90
39525;DHT22;25203;50.754;6.978;2023-08-06T00:49:38;14.90;99.90
39525;DHT22;25203;50.754;6.978;2023-08-06T00:51:39;15.00;99.90
39525;DHT22;25203;50.754;6.978;2023-08-06T00:53:40;15.00;99.90
39525;DHT22;25203;50.754;6.978;2023-08-06T00:55:42;15.10;99.90
39525;DHT22;25203;50.754;6.978;2023-08-06T00:57:44;15.10;99.90
39525;DHT22;25203;50.754;6.978;2023-08-06T00:59:45;15.10;99.90
39525;DHT22;25203;50.754;6.978;2023-08-06T01:01:46;15.10;99.90
39525;DHT22;25203;50.754;6.978;2023-08-06T01:03:47;15.10;99.90
39525;DHT22;25203;50.754;6.978;2023-08-06T01:05:48;15.10;99.90
39525;DHT22;25203;50.754;6.978;2023-08-06T01:07:57;15.10;99.90
39525;DHT22;25203;50.754;6.978;2023-08-06T01:15:18;15.00;99.90
39525;DHT22;25203;50.754;6.978;2023-08-06T01:17:20;15.00;99.90
39525;DHT22;25203;50.754;6.978;2023-08-06T01:19:21;14.90;99.90
39525;DHT22;25203;50.754;6.978;2023-08-06T01:21:22;14.90;99.90
39525;DHT22;25203;50.754;6.978;2023-08-06T01:23:23;14.80;99.90
39525;DHT22;25203;50.754;6.978;2023-08-06T01:25:30;14.80;99.90
39525;DHT22;25203;50.754;6.978;2023-08-06T01:29:45;14.70;99.90
39525;DHT22;25203;50.754;6.978;2023-08-06T01:31:48;14.70;99.90
39525;DHT22;25203;50.754;6.978;2023-08-06T01:33:53;14.60;99.90
39525;DHT22;25203;50.754;6.978;2023-08-06T01:35:54;14.60;99.90
39525;DHT22;25203;50.754;6.978;2023-08-06T01:37:56;14.60;99.90
39525;DHT22;25203;50.754;6.978;2023-08-06T01:39:57;14.50;99.90
39525;DHT22;25203;50.754;6.978;2023-08-06T01:41:57;14.50;99.90
39525;DHT22;25203;50.754;6.978;2023-08-06T01:43:58;14.50;99.90
39525;DHT22;25203;50.754;6.978;2023-08-06T01:45:58;14.50;99.90
39525;DHT22;25203;50.754;6.978;2023-08-06T01:47:59;14.50;99.90
39525;DHT22;25203;50.754;6.978;2023-08-06T01:50:00;14.50;99.90
39525;DHT22;25203;50.754;6.978;2023-08-06T01:52:00;14.50;99.90
39525;DHT22;25203;50.754;6.978;2023-08-06T01:54:01;14.50;99.90
39525;DHT22;25203;50.754;6.978;2023-08-06T01:56:02;14.50;99.90
39525;DHT22;25203;50.754;6.978;2023-08-06T01:58:03;14.40;99.90
39525;DHT22;25203;50.754;6.978;2023-08-06T02:00:04;14.40;99.90
39525;DHT22;25203;50.754;6.978;2023-08-06T02:02:04;14.40;99.90
39525;DHT22;25203;50.754;6.978;2023-08-06T02:04:05;14.40;99.90
39525;DHT22;25203;50.754;6.978;2023-08-06T02:06:06;14.40;99.90
39525;DHT22;25203;50.754;6.978;2023-08-06T02:08:07;14.40;99.90
39525;DHT22;25203;50.754;6.978;2023-08-06T02:10:08;14.40;99.90
39525;DHT22;25203;50.754;6.978;2023-08-06T02:12:08;14.40;99.90
39525;DHT22;25203;50.754;6.978;2023-08-06T02:14:09;14.50;99.90
39525;DHT22;25203;50.754;6.978;2023-08-06T02:16:09;14.40;99.90
39525;DHT22;25203;50.754;6.978;2023-08-06T02:18:10;14.50;99.90
39525;DHT22;25203;50.754;6.978;2023-08-06T02:20:11;14.60;99.90
39525;DHT22;25203;50.754;6.978;2023-08-06T02:22:11;14.60;99.90
39525;DHT22;25203;50.754;6.978;2023-08-06T02:24:12;14.60;99.90
39525;DHT22;25203;50.754;6.978;2023-08-06T02:26:13;14.60;99.90
39525;DHT22;25203;50.754;6.978;2023-08-06T02:28:13;14.60;99.90
39525;DHT22;25203;50.754;6.978;2023-08-06T02:30:14;14.60;99.90
39525;DHT22;25203;50.754;6.978;2023-08-06T02:32:14;14.60;99.90
39525;DHT22;25203;50.754;6.978;2023-08-06T02:34:15;14.60;99.90
39525;DHT22;25203;50.754;6.978;2023-08-06T02:36:16;14.60;99.90
39525;DHT22;25203;50.754;6.978;2023-08-06T02:38:16;14.60;99.90
39525;DHT22;25203;50.754;6.978;2023-08-06T02:40:17;14.60;99.90
39525;DHT22;25203;50.754;6.978;2023-08-06T02:42:17;14.60;99.90
39525;DHT22;25203;50.754;6.978;2023-08-06T02:44:18;14.50;99.90
39525;DHT22;25203;50.754;6.978;2023-08-06T02:46:19;14.50;99.90
39525;DHT22;25203;50.754;6.978;2023-08-06T02:48:19;14.60;99.90
39525;DHT22;25203;50.754;6.978;2023-08-06T02:50:20;14.60;99.90
39525;DHT22;25203;50.754;6.978;2023-08-06T02:52:20;14.60;99.90
39525;DHT22;25203;50.754;6.978;2023-08-06T02:54:21;14.60;99.90
39525;DHT22;25203;50.754;6.978;2023-08-06T02:56:21;14.60;99.90
39525;DHT22;25203;50.754;6.978;2023-08-06T02:58:22;14.60;99.90
39525;DHT22;25203;50.754;6.978;2023-08-06T03:00:23;14.70;99.90
39525;DHT22;25203;50.754;6.978;2023-08-06T03:02:23;14.60;99.90
39525;DHT22;25203;50.754;6.978;2023-08-06T03:04:24;14.60;99.90
39525;DHT22;25203;50.754;6.978;2023-08-06T03:06:25;14.60;99.90
39525;DHT22;25203;50.754;6.978;2023-08-06T03:08:25;14.60;99.90
39525;DHT22;25203;50.754;6.978;2023-08-06T03:10:26;14.60;99.90
39525;DHT22;25203;50.754;6.978;2023-08-06T03:12:27;14.60;99.90
39525;DHT22;25203;50.754;6.978;2023-08-06T03:14:27;14.50;99.90
39525;DHT22;25203;50.754;6.978;2023-08-06T03:16:28;14.60;99.90
39525;DHT22;25203;50.754;6.978;2023-08-06T03:18:29;14.50;99.90
39525;DHT22;25203;50.754;6.978;2023-08-06T03:20:29;14.50;99.90
39525;DHT22;25203;50.754;6.978;2023-08-06T03:22:30;14.40;99.90
39525;DHT22;25203;50.754;6.978;2023-08-06T03:24:30;14.40;99.90
39525;DHT22;25203;50.754;6.978;2023-08-06T03:26:31;14.40;99.90
39525;DHT22;25203;50.754;6.978;2023-08-06T03:28:31;14.40;99.90
39525;DHT22;25203;50.754;6.978;2023-08-06T03:30:32;14.40;99.90
39525;DHT22;25203;50.754;6.978;2023-08-06T03:32:33;14.40;99.90
39525;DHT22;25203;50.754;6.978;2023-08-06T03:34:33;14.40;99.90
39525;DHT22;25203;50.754;6.978;2023-08-06T03:36:34;14.40;99.90
39525;DHT22;25203;50.754;6.978;2023-08-06T03:38:34;14.50;99.90
39525;DHT22;25203;50.754;6.978;2023-08-06T03:40:35;14.40;99.90
39525;DHT22;25203;50.754;6.978;2023-08-06T03:42:36;14.40;99.90
39525;DHT22;25203;50.754;6.978;2023-08-06T03:44:37;14.40;99.90
39525;DHT22;25203;50.754;6.978;2023-08-06T03:46:37;14.30;99.90
39525;DHT22;25203;50.754;6.978;2023-08-06T03:48:38;14.30;99.90
39525;DHT22;25203;50.754;6.978;2023-08-06T03:50:39;14.30;99.90
39525;DHT22;25203;50.754;6.978;2023-08-06T03:52:39;14.30;99.90
39525;DHT22;25203;50.754;6.978;2023-08-06T03:54:40;14.20;99.90
39525;DHT22;25203;50.754;6.978;2023-08-06T03:56:43;14.20;99.90
39525;DHT22;25203;50.754;6.978;2023-08-06T03:58:43;14.10;99.90
39525;DHT22;25203;50.754;6.978;2023-08-06T04:00:44;14.10;99.90
39525;DHT22;25203;50.754;6.978;2023-08-06T04:02:45;14.10;99.90
39525;DHT22;25203;50.754;6.978;2023-08-06T04:04:45;14.10;99.90
39525;DHT22;25203;50.754;6.978;2023-08-06T04:06:46;14.10;99.90
39525;DHT22;25203;50.754;6.978;2023-08-06T04:08:46;14.00;99.90
39525;DHT22;25203;50.754;6.978;2023-08-06T04:10:51;14.00;99.90
39525;DHT22;25203;50.754;6.978;2023-08-06T04:12:52;14.00;99.90
39525;DHT22;25203;50.754;6.978;2023-08-06T04:14:53;14.00;99.90
39525;DHT22;25203;50.754;6.978;2023-08-06T04:16:54;13.90;99.90
39525;DHT22;25203;50.754;6.978;2023-08-06T04:18:55;13.90;99.90
39525;DHT22;25203;50.754;6.978;2023-08-06T04:20:56;13.90;99.90
39525;DHT22;25203;50.754;6.978;2023-08-06T04:22:57;13.90;99.90
39525;DHT22;25203;50.754;6.978;2023-08-06T04:24:58;13.90;99.90
39525;DHT22;25203;50.754;6.978;2023-08-06T04:26:58;13.90;99.90
39525;DHT22;25203;50.754;6.978;2023-08-06T04:28:59;13.90;99.90
39525;DHT22;25203;50.754;6.978;2023-08-06T04:31:00;13.90;99.90
39525;DHT22;25203;50.754;6.978;2023-08-06T04:33:00;13.90;99.90
39525;DHT22;25203;50.754;6.978;2023-08-06T04:35:01;13.90;99.90
39525;DHT22;25203;50.754;6.978;2023-08-06T04:37:02;13.90;99.90
39525;DHT22;25203;50.754;6.978;2023-08-06T04:39:03;14.00;99.90
39525;DHT22;25203;50.754;6.978;2023-08-06T04:41:04;13.90;99.90
39525;DHT22;25203;50.754;6.978;2023-08-06T04:43:04;14.00;99.90
39525;DHT22;25203;50.754;6.978;2023-08-06T04:45:06;14.10;99.90
39525;DHT22;25203;50.754;6.978;2023-08-06T04:47:06;14.10;99.90
39525;DHT22;25203;50.754;6.978;2023-08-06T04:49:07;14.10;99.90
39525;DHT22;25203;50.754;6.978;2023-08-06T04:51:08;14.10;99.90
39525;DHT22;25203;50.754;6.978;2023-08-06T04:53:08;14.00;99.90
39525;DHT22;25203;50.754;6.978;2023-08-06T04:55:09;14.00;99.90
39525;DHT22;25203;50.754;6.978;2023-08-06T04:57:09;14.00;99.90
39525;DHT22;25203;50.754;6.978;2023-08-06T04:59:10;14.00;99.90
39525;DHT22;25203;50.754;6.978;2023-08-06T05:01:11;14.00;99.90
39525;DHT22;25203;50.754;6.978;2023-08-06T05:03:11;14.00;99.90
39525;DHT22;25203;50.754;6.978;2023-08-06T05:05:12;14.00;99.90
39525;DHT22;25203;50.754;6.978;2023-08-06T05:07:12;14.10;99.90
39525;DHT22;25203;50.754;6.978;2023-08-06T05:09:13;14.10;99.90
39525;DHT22;25203;50.754;6.978;2023-08-06T05:11:13;14.10;99.90
39525;DHT22;25203;50.754;6.978;2023-08-06T05:13:14;14.20;99.90
39525;DHT22;25203;50.754;6.978;2023-08-06T05:15:15;14.20;99.90
39525;DHT22;25203;50.754;6.978;2023-08-06T05:17:15;14.20;99.90
39525;DHT22;25203;50.754;6.978;2023-08-06T05:19:16;14.20;99.90
39525;DHT22;25203;50.754;6.978;2023-08-06T05:21:16;14.20;99.90
39525;DHT22;25203;50.754;6.978;2023-08-06T05:23:17;14.20;99.90
39525;DHT22;25203;50.754;6.978;2023-08-06T05:25:18;14.20;99.90
39525;DHT22;25203;50.754;6.978;2023-08-06T05:27:18;14.20;99.90
39525;DHT22;25203;50.754;6.978;2023-08-06T05:29:19;14.20;99.90
39525;DHT22;25203;50.754;6.978;2023-08-06T05:31:20;14.20;99.90
39525;DHT22;25203;50.754;6.978;2023-08-06T05:33:20;14.20;99.90
39525;DHT22;25203;50.754;6.978;2023-08-06T05:35:21;14.30;99.90
39525;DHT22;25203;50.754;6.978;2023-08-06T05:37:22;14.30;99.90
39525;DHT22;25203;50.754;6.978;2023-08-06T05:39:23;14.30;99.90
39525;DHT22;25203;50.754;6.978;2023-08-06T05:41:23;14.30;99.90
39525;DHT22;25203;50.754;6.978;2023-08-06T05:43:24;14.30;99.90
39525;DHT22;25203;50.754;6.978;2023-08-06T05:45:25;14.40;99.90
39525;DHT22;25203;50.754;6.978;2023-08-06T05:47:25;14.50;99.90
39525;DHT22;25203;50.754;6.978;2023-08-06T05:49:26;14.50;99.90
39525;DHT22;25203;50.754;6.978;2023-08-06T05:51:27;14.50;99.90
39525;DHT22;25203;50.754;6.978;2023-08-06T05:53:27;14.50;99.90
39525;DHT22;25203;50.754;6.978;2023-08-06T05:55:28;14.60;99.90
39525;DHT22;25203;50.754;6.978;2023-08-06T05:57:29;14.50;99.90
39525;DHT22;25203;50.754;6.978;2023-08-06T05:59:29;14.50;99.90
39525;DHT22;25203;50.754;6.978;2023-08-06T06:01:30;14.50;99.90
39525;DHT22;25203;50.754;6.978;2023-08-06T06:03:31;14.50;99.90
39525;DHT22;25203;50.754;6.978;2023-08-06T06:05:31;14.50;99.90
39525;DHT22;25203;50.754;6.978;2023-08-06T06:07:32;14.40;99.90
39525;DHT22;25203;50.754;6.978;2023-08-06T06:09:33;14.50;99.90
39525;DHT22;25203;50.754;6.978;2023-08-06T06:11:33;14.50;99.90
39525;DHT22;25203;50.754;6.978;2023-08-06T06:13:34;14.50;99.90
39525;DHT22;25203;50.754;6.978;2023-08-06T06:15:34;14.60;99.90
39525;DHT22;25203;50.754;6.978;2023-08-06T06:17:35;14.60;99.90
39525;DHT22;25203;50.754;6.978;2023-08-06T06:19:36;14.60;99.90
39525;DHT22;25203;50.754;6.978;2023-08-06T06:21:36;14.60;99.90
39525;DHT22;25203;50.754;6.978;2023-08-06T06:23:38;14.60;99.90
39525;DHT22;25203;50.754;6.978;2023-08-06T06:25:49;14.60;99.90
39525;DHT22;25203;50.754;6.978;2023-08-06T06:27:51;14.60;99.90
39525;DHT22;25203;50.754;6.978;2023-08-06T06:29:52;14.70;99.90
39525;DHT22;25203;50.754;6.978;2023-08-06T06:31:54;14.70;99.90
39525;DHT22;25203;50.754;6.978;2023-08-06T06:33:55;14.80;99.90
39525;DHT22;25203;50.754;6.978;2023-08-06T06:35:56;14.90;99.90
39525;DHT22;25203;50.754;6.978;2023-08-06T06:37:56;15.00;99.90
39525;DHT22;25203;50.754;6.978;2023-08-06T06:39:57;15.10;99.90
39525;DHT22;25203;50.754;6.978;2023-08-06T06:41:57;15.20;99.90
39525;DHT22;25203;50.754;6.978;2023-08-06T06:43:58;15.30;99.90
39525;DHT22;25203;50.754;6.978;2023-08-06T06:45:59;15.50;99.90
39525;DHT22;25203;50.754;6.978;2023-08-06T06:48:00;15.60;99.90
39525;DHT22;25203;50.754;6.978;2023-08-06T06:50:01;15.80;99.90
39525;DHT22;25203;50.754;6.978;2023-08-06T06:52:02;15.90;99.90
39525;DHT22;25203;50.754;6.978;2023-08-06T06:54:02;15.90;99.90
39525;DHT22;25203;50.754;6.978;2023-08-06T06:56:04;16.10;99.90
39525;DHT22;25203;50.754;6.978;2023-08-06T06:58:05;16.10;99.90
39525;DHT22;25203;50.754;6.978;2023-08-06T07:00:06;16.10;99.90
39525;DHT22;25203;50.754;6.978;2023-08-06T07:02:06;16.10;99.90
39525;DHT22;25203;50.754;6.978;2023-08-06T07:04:07;16.20;99.90
39525;DHT22;25203;50.754;6.978;2023-08-06T07:06:08;16.30;99.90
39525;DHT22;25203;50.754;6.978;2023-08-06T07:08:08;16.20;99.90
39525;DHT22;25203;50.754;6.978;2023-08-06T07:10:09;16.20;99.90
39525;DHT22;25203;50.754;6.978;2023-08-06T07:12:10;16.20;99.90
39525;DHT22;25203;50.754;6.978;2023-08-06T07:14:10;16.30;99.90
39525;DHT22;25203;50.754;6.978;2023-08-06T07:16:11;16.30;99.90
39525;DHT22;25203;50.754;6.978;2023-08-06T07:18:12;16.30;99.90
39525;DHT22;25203;50.754;6.978;2023-08-06T07:20:12;16.30;99.90
39525;DHT22;25203;50.754;6.978;2023-08-06T07:22:13;16.20;99.90
39525;DHT22;25203;50.754;6.978;2023-08-06T07:24:13;16.20;99.90
39525;DHT22;25203;50.754;6.978;2023-08-06T07:26:14;16.30;99.90
39525;DHT22;25203;50.754;6.978;2023-08-06T07:28:15;16.50;99.90
39525;DHT22;25203;50.754;6.978;2023-08-06T07:30:16;16.50;99.90
39525;DHT22;25203;50.754;6.978;2023-08-06T07:32:17;16.40;99.90
39525;DHT22;25203;50.754;6.978;2023-08-06T07:34:17;16.40;99.90
39525;DHT22;25203;50.754;6.978;2023-08-06T07:36:18;16.50;99.90
39525;DHT22;25203;50.754;6.978;2023-08-06T07:38:19;16.50;99.90
39525;DHT22;25203;50.754;6.978;2023-08-06T07:40:20;16.50;99.90
39525;DHT22;25203;50.754;6.978;2023-08-06T07:42:21;16.50;99.90
39525;DHT22;25203;50.754;6.978;2023-08-06T07:44:21;16.50;99.90
39525;DHT22;25203;50.754;6.978;2023-08-06T07:46:22;16.50;99.90
39525;DHT22;25203;50.754;6.978;2023-08-06T07:48:22;16.40;99.90
39525;DHT22;25203;50.754;6.978;2023-08-06T07:50:23;16.40;99.90
39525;DHT22;25203;50.754;6.978;2023-08-06T07:52:24;16.40;99.90
39525;DHT22;25203;50.754;6.978;2023-08-06T07:54:24;16.30;99.90
39525;DHT22;25203;50.754;6.978;2023-08-06T07:56:25;16.30;99.90
39525;DHT22;25203;50.754;6.978;2023-08-06T07:58:26;16.20;99.90
39525;DHT22;25203;50.754;6.978;2023-08-06T08:00:27;16.20;99.90
39525;DHT22;25203;50.754;6.978;2023-08-06T08:02:27;16.20;99.90
39525;DHT22;25203;50.754;6.978;2023-08-06T08:04:28;16.40;99.90
39525;DHT22;25203;50.754;6.978;2023-08-06T08:06:28;16.50;99.90
39525;DHT22;25203;50.754;6.978;2023-08-06T08:08:29;16.70;99.90
39525;DHT22;25203;50.754;6.978;2023-08-06T08:10:31;16.90;99.90
39525;DHT22;25203;50.754;6.978;2023-08-06T08:12:31;16.90;99.90
39525;DHT22;25203;50.754;6.978;2023-08-06T08:14:32;17.10;99.90
39525;DHT22;25203;50.754;6.978;2023-08-06T08:16:36;17.10;99.90
39525;DHT22;25203;50.754;6.978;2023-08-06T08:18:36;17.20;99.90
39525;DHT22;25203;50.754;6.978;2023-08-06T08:20:37;17.10;99.90
39525;DHT22;25203;50.754;6.978;2023-08-06T08:22:37;16.90;99.90
39525;DHT22;25203;50.754;6.978;2023-08-06T08:24:38;16.90;99.90
39525;DHT22;25203;50.754;6.978;2023-08-06T08:26:39;16.70;99.90
39525;DHT22;25203;50.754;6.978;2023-08-06T08:28:39;16.50;99.90
39525;DHT22;25203;50.754;6.978;2023-08-06T08:30:43;16.50;99.90
39525;DHT22;25203;50.754;6.978;2023-08-06T08:32:43;16.30;99.90
39525;DHT22;25203;50.754;6.978;2023-08-06T08:34:44;16.20;99.90
39525;DHT22;25203;50.754;6.978;2023-08-06T08:36:45;16.20;99.90
39525;DHT22;25203;50.754;6.978;2023-08-06T08:38:48;16.30;99.90
39525;DHT22;25203;50.754;6.978;2023-08-06T08:40:52;16.30;99.90
39525;DHT22;25203;50.754;6.978;2023-08-06T08:42:54;16.20;99.90
39525;DHT22;25203;50.754;6.978;2023-08-06T08:44:56;16.20;99.90
39525;DHT22;25203;50.754;6.978;2023-08-06T08:46:57;16.20;99.90
39525;DHT22;25203;50.754;6.978;2023-08-06T08:48:59;16.20;99.90
39525;DHT22;25203;50.754;6.978;2023-08-06T08:51:00;16.20;99.90
39525;DHT22;25203;50.754;6.978;2023-08-06T08:53:01;16.10;99.90
39525;DHT22;25203;50.754;6.978;2023-08-06T08:55:02;16.00;99.90
39525;DHT22;25203;50.754;6.978;2023-08-06T08:57:03;16.10;99.90
39525;DHT22;25203;50.754;6.978;2023-08-06T08:59:04;16.00;99.90
39525;DHT22;25203;50.754;6.978;2023-08-06T09:01:04;16.10;99.90
39525;DHT22;25203;50.754;6.978;2023-08-06T09:03:06;16.20;99.90
39525;DHT22;25203;50.754;6.978;2023-08-06T09:05:08;16.20;99.90
39525;DHT22;25203;50.754;6.978;2023-08-06T09:07:10;16.30;99.90
39525;DHT22;25203;50.754;6.978;2023-08-06T09:09:17;16.40;99.90
39525;DHT22;25203;50.754;6.978;2023-08-06T09:11:21;16.50;99.90
39525;DHT22;25203;50.754;6.978;2023-08-06T09:13:22;16.60;99.90
39525;DHT22;25203;50.754;6.978;2023-08-06T09:15:25;16.70;99.90
39525;DHT22;25203;50.754;6.978;2023-08-06T09:17:26;16.70;99.90
39525;DHT22;25203;50.754;6.978;2023-08-06T09:19:28;16.60;99.90
39525;DHT22;25203;50.754;6.978;2023-08-06T09:21:28;16.40;99.90
39525;DHT22;25203;50.754;6.978;2023-08-06T09:23:32;16.00;99.90
39525;DHT22;25203;50.754;6.978;2023-08-06T09:25:33;15.70;99.90
39525;DHT22;25203;50.754;6.978;2023-08-06T09:27:37;15.60;99.90
39525;DHT22;25203;50.754;6.978;2023-08-06T09:29:43;15.60;99.90
39525;DHT22;25203;50.754;6.978;2023-08-06T09:31:49;15.60;99.90
39525;DHT22;25203;50.754;6.978;2023-08-06T09:33:55;15.60;99.90
39525;DHT22;25203;50.754;6.978;2023-08-06T09:36:07;15.60;99.90
39525;DHT22;25203;50.754;6.978;2023-08-06T09:38:09;15.40;99.90
39525;DHT22;25203;50.754;6.978;2023-08-06T09:40:32;15.40;99.90
39525;DHT22;25203;50.754;6.978;2023-08-06T09:42:36;15.30;99.90
39525;DHT22;25203;50.754;6.978;2023-08-06T09:44:40;15.20;99.90
39525;DHT22;25203;50.754;6.978;2023-08-06T09:46:41;15.20;99.90
39525;DHT22;25203;50.754;6.978;2023-08-06T09:48:45;15.20;99.90
39525;DHT22;25203;50.754;6.978;2023-08-06T09:50:47;15.20;99.90
39525;DHT22;25203;50.754;6.978;2023-08-06T09:52:48;15.10;99.90
39525;DHT22;25203;50.754;6.978;2023-08-06T09:54:51;15.10;99.90
39525;DHT22;25203;50.754;6.978;2023-08-06T09:56:53;14.90;99.90
39525;DHT22;25203;50.754;6.978;2023-08-06T09:58:54;14.80;99.90
39525;DHT22;25203;50.754;6.978;2023-08-06T10:00:56;14.70;99.90
39525;DHT22;25203;50.754;6.978;2023-08-06T10:02:59;14.70;99.90
39525;DHT22;25203;50.754;6.978;2023-08-06T10:05:01;14.60;99.90
39525;DHT22;25203;50.754;6.978;2023-08-06T10:07:03;14.60;99.90
39525;DHT22;25203;50.754;6.978;2023-08-06T10:09:04;14.50;99.90
39525;DHT22;25203;50.754;6.978;2023-08-06T10:11:05;14.50;99.90
39525;DHT22;25203;50.754;6.978;2023-08-06T10:13:06;14.40;99.90
39525;DHT22;25203;50.754;6.978;2023-08-06T10:15:15;14.30;99.90
39525;DHT22;25203;50.754;6.978;2023-08-06T10:17:16;14.20;99.90
39525;DHT22;25203;50.754;6.978;2023-08-06T10:19:18;14.00;99.90
39525;DHT22;25203;50.754;6.978;2023-08-06T10:21:19;13.80;99.90
39525;DHT22;25203;50.754;6.978;2023-08-06T10:23:33;13.80;99.90
39525;DHT22;25203;50.754;6.978;2023-08-06T10:25:35;13.70;99.90
39525;DHT22;25203;50.754;6.978;2023-08-06T10:27:40;13.60;99.90
39525;DHT22;25203;50.754;6.978;2023-08-06T10:29:53;13.50;99.90
39525;DHT22;25203;50.754;6.978;2023-08-06T10:31:54;13.40;99.90
39525;DHT22;25203;50.754;6.978;2023-08-06T10:33:56;13.40;99.90
39525;DHT22;25203;50.754;6.978;2023-08-06T10:36:01;13.30;99.90
39525;DHT22;25203;50.754;6.978;2023-08-06T10:38:12;13.30;99.90
39525;DHT22;25203;50.754;6.978;2023-08-06T10:40:21;13.20;99.90
39525;DHT22;25203;50.754;6.978;2023-08-06T10:42:28;13.20;99.90
39525;DHT22;25203;50.754;6.978;2023-08-06T10:44:29;13.10;99.90
39525;DHT22;25203;50.754;6.978;2023-08-06T10:46:30;13.10;99.90
39525;DHT22;25203;50.754;6.978;2023-08-06T10:48:35;13.10;99.90
39525;DHT22;25203;50.754;6.978;2023-08-06T10:50:36;13.10;99.90
39525;DHT22;25203;50.754;6.978;2023-08-06T10:52:37;13.10;99.90
39525;DHT22;25203;50.754;6.978;2023-08-06T10:54:38;13.10;99.90
39525;DHT22;25203;50.754;6.978;2023-08-06T10:56:40;13.10;99.90
39525;DHT22;25203;50.754;6.978;2023-08-06T10:58:43;13.10;99.90
39525;DHT22;25203;50.754;6.978;2023-08-06T11:00:44;13.10;99.90
39525;DHT22;25203;50.754;6.978;2023-08-06T11:02:47;13.10;99.90
39525;DHT22;25203;50.754;6.978;2023-08-06T11:04:49;13.10;99.90
39525;DHT22;25203;50.754;6.978;2023-08-06T11:06:52;13.10;99.90
39525;DHT22;25203;50.754;6.978;2023-08-06T11:08:54;13.10;99.90
39525;DHT22;25203;50.754;6.978;2023-08-06T11:10:56;13.10;99.90
39525;DHT22;25203;50.754;6.978;2023-08-06T11:13:07;13.10;99.90
39525;DHT22;25203;50.754;6.978;2023-08-06T11:15:08;13.20;99.90
39525;DHT22;25203;50.754;6.978;2023-08-06T11:17:09;13.20;99.90
39525;DHT22;25203;50.754;6.978;2023-08-06T11:19:09;13.20;99.90
39525;DHT22;25203;50.754;6.978;2023-08-06T11:21:10;13.20;99.90
39525;DHT22;25203;50.754;6.978;2023-08-06T11:23:13;13.20;99.90
39525;DHT22;25203;50.754;6.978;2023-08-06T11:25:14;13.30;99.90
39525;DHT22;25203;50.754;6.978;2023-08-06T11:27:16;13.30;99.90
39525;DHT22;25203;50.754;6.978;2023-08-06T11:29:17;13.40;99.90
39525;DHT22;25203;50.754;6.978;2023-08-06T11:31:22;13.40;99.90
39525;DHT22;25203;50.754;6.978;2023-08-06T11:33:26;13.40;99.90
39525;DHT22;25203;50.754;6.978;2023-08-06T11:35:27;13.40;99.90
39525;DHT22;25203;50.754;6.978;2023-08-06T11:37:27;13.50;99.90
39525;DHT22;25203;50.754;6.978;2023-08-06T11:39:28;13.50;99.90
39525;DHT22;25203;50.754;6.978;2023-08-06T11:41:29;13.60;99.90
39525;DHT22;25203;50.754;6.978;2023-08-06T11:43:31;13.60;99.90
39525;DHT22;25203;50.754;6.978;2023-08-06T11:45:35;13.60;99.90
39525;DHT22;25203;50.754;6.978;2023-08-06T11:47:38;13.70;99.90
39525;DHT22;25203;50.754;6.978;2023-08-06T11:49:45;13.70;99.90
39525;DHT22;25203;50.754;6.978;2023-08-06T11:51:50;13.70;99.90
39525;DHT22;25203;50.754;6.978;2023-08-06T11:53:54;13.80;99.90
39525;DHT22;25203;50.754;6.978;2023-08-06T11:55:55;13.80;99.90
39525;DHT22;25203;50.754;6.978;2023-08-06T11:57:56;13.80;99.90
39525;DHT22;25203;50.754;6.978;2023-08-06T11:59:57;13.80;99.90
39525;DHT22;25203;50.754;6.978;2023-08-06T12:01:59;13.80;99.90
39525;DHT22;25203;50.754;6.978;2023-08-06T12:04:00;13.90;99.90
39525;DHT22;25203;50.754;6.978;2023-08-06T12:06:01;13.80;99.90
39525;DHT22;25203;50.754;6.978;2023-08-06T12:08:02;13.90;99.90
39525;DHT22;25203;50.754;6.978;2023-08-06T12:10:04;13.90;99.90
39525;DHT22;25203;50.754;6.978;2023-08-06T12:12:05;13.90;99.90
39525;DHT22;25203;50.754;6.978;2023-08-06T12:14:06;13.90;99.90
39525;DHT22;25203;50.754;6.978;2023-08-06T12:16:07;14.00;99.90
39525;DHT22;25203;50.754;6.978;2023-08-06T12:18:07;14.00;99.90
39525;DHT22;25203;50.754;6.978;2023-08-06T12:20:09;14.00;99.90
39525;DHT22;25203;50.754;6.978;2023-08-06T12:22:09;14.00;99.90
39525;DHT22;25203;50.754;6.978;2023-08-06T12:24:10;14.00;99.90
39525;DHT22;25203;50.754;6.978;2023-08-06T12:26:11;14.00;99.90
39525;DHT22;25203;50.754;6.978;2023-08-06T12:28:11;14.10;99.90
39525;DHT22;25203;50.754;6.978;2023-08-06T12:30:13;14.10;99.90
39525;DHT22;25203;50.754;6.978;2023-08-06T12:32:15;14.10;99.90
39525;DHT22;25203;50.754;6.978;2023-08-06T12:34:15;14.10;99.90
39525;DHT22;25203;50.754;6.978;2023-08-06T12:36:16;14.20;99.90
39525;DHT22;25203;50.754;6.978;2023-08-06T12:38:17;14.20;99.90
39525;DHT22;25203;50.754;6.978;2023-08-06T12:40:17;14.20;99.90
39525;DHT22;25203;50.754;6.978;2023-08-06T12:42:18;14.30;99.90
39525;DHT22;25203;50.754;6.978;2023-08-06T12:44:18;14.30;99.90
39525;DHT22;25203;50.754;6.978;2023-08-06T12:46:19;14.30;99.90
39525;DHT22;25203;50.754;6.978;2023-08-06T12:48:19;14.30;99.90
39525;DHT22;25203;50.754;6.978;2023-08-06T12:50:20;14.30;99.90
39525;DHT22;25203;50.754;6.978;2023-08-06T12:52:21;14.30;99.90
39525;DHT22;25203;50.754;6.978;2023-08-06T12:54:21;14.20;99.90